Watson, New York
Current Conditions -  °F | °C
As of 9:58 PM on Wednesday 26 Nov 2014 (Local Time) from KGTB Reporting Station
Haze Haze  
Wind Chill: 18°   Ceiling: 1200
Heat Index: 26°   Visibility: 5mi
Dew Point: 25°   Wind: 7mph
Humidity: 99%   Direction: 40°NE
Pressure: 30"   Gusts: NA
Location:  43.7565°N, 75.5938°W
Report Text: KGTB 270258Z AUTO 04006KT 5SM UP BR SCT007 OVC012 M03/M04 A3000 RMK AO2 SLP168 P0000 60001 T10351037 57019
Loading
Personal Weather Stations






























Interactive Weather Map New forecast layout! Learn more

10-Day Weather Forecast

Advertisements
Track Severe Weather on mobile